sensor_id;sensor_type;location;lat;lon;timestamp;temperature;humidity
64833;HTU21D;51290;45.060;38.948;2023-05-07T00:00:38;17.67;60.67
64833;HTU21D;51290;45.060;38.948;2023-05-07T00:03:05;17.65;60.74
64833;HTU21D;51290;45.060;38.948;2023-05-07T00:05:34;17.62;61.03
64833;HTU21D;51290;45.060;38.948;2023-05-07T00:08:00;17.59;61.15
64833;HTU21D;51290;45.060;38.948;2023-05-07T00:10:26;17.55;60.62
64833;HTU21D;51290;45.060;38.948;2023-05-07T00:12:52;17.52;61.03
64833;HTU21D;51290;45.060;38.948;2023-05-07T00:15:18;17.49;60.77
64833;HTU21D;51290;45.060;38.948;2023-05-07T00:17:44;17.46;60.67
64833;HTU21D;51290;45.060;38.948;2023-05-07T00:20:10;17.43;60.99
64833;HTU21D;51290;45.060;38.948;2023-05-07T00:22:36;17.38;60.60
64833;HTU21D;51290;45.060;38.948;2023-05-07T00:25:02;17.35;61.28
64833;HTU21D;51290;45.060;38.948;2023-05-07T00:27:28;17.31;61.38
64833;HTU21D;51290;45.060;38.948;2023-05-07T00:29:54;17.28;61.82
64833;HTU21D;51290;45.060;38.948;2023-05-07T00:32:20;17.22;61.44
64833;HTU21D;51290;45.060;38.948;2023-05-07T00:34:46;17.19;61.31
64833;HTU21D;51290;45.060;38.948;2023-05-07T00:37:12;17.16;61.55
64833;HTU21D;51290;45.060;38.948;2023-05-07T00:39:38;17.11;61.50
64833;HTU21D;51290;45.060;38.948;2023-05-07T00:42:04;17.07;61.32
64833;HTU21D;51290;45.060;38.948;2023-05-07T00:44:30;17.05;61.92
64833;HTU21D;51290;45.060;38.948;2023-05-07T00:47:02;17.00;63.08
64833;HTU21D;51290;45.060;38.948;2023-05-07T00:49:47;16.94;64.68
64833;HTU21D;51290;45.060;38.948;2023-05-07T00:52:16;16.91;63.48
64833;HTU21D;51290;45.060;38.948;2023-05-07T00:54:42;16.88;62.61
64833;HTU21D;51290;45.060;38.948;2023-05-07T00:57:09;16.85;63.44
64833;HTU21D;51290;45.060;38.948;2023-05-07T00:59:37;16.84;63.67
64833;HTU21D;51290;45.060;38.948;2023-05-07T01:02:03;16.80;64.47
64833;HTU21D;51290;45.060;38.948;2023-05-07T01:04:29;16.78;63.29
64833;HTU21D;51290;45.060;38.948;2023-05-07T01:06:56;16.76;62.98
64833;HTU21D;51290;45.060;38.948;2023-05-07T01:09:24;16.74;63.21
64833;HTU21D;51290;45.060;38.948;2023-05-07T01:11:52;16.72;63.18
64833;HTU21D;51290;45.060;38.948;2023-05-07T01:14:19;16.69;63.54
64833;HTU21D;51290;45.060;38.948;2023-05-07T01:16:47;16.65;63.07
64833;HTU21D;51290;45.060;38.948;2023-05-07T01:19:17;16.61;63.44
64833;HTU21D;51290;45.060;38.948;2023-05-07T01:21:47;16.59;63.48
64833;HTU21D;51290;45.060;38.948;2023-05-07T01:24:15;16.54;63.27
64833;HTU21D;51290;45.060;38.948;2023-05-07T01:26:43;16.48;63.15
64833;HTU21D;51290;45.060;38.948;2023-05-07T01:29:11;16.46;63.11
64833;HTU21D;51290;45.060;38.948;2023-05-07T01:31:37;16.41;63.34
64833;HTU21D;51290;45.060;38.948;2023-05-07T01:34:07;16.36;62.98
64833;HTU21D;51290;45.060;38.948;2023-05-07T01:36:34;16.33;63.57
64833;HTU21D;51290;45.060;38.948;2023-05-07T01:39:01;16.29;63.18
64833;HTU21D;51290;45.060;38.948;2023-05-07T01:41:27;16.25;63.30
64833;HTU21D;51290;45.060;38.948;2023-05-07T01:43:54;16.19;64.66
64833;HTU21D;51290;45.060;38.948;2023-05-07T01:46:21;16.14;64.20
64833;HTU21D;51290;45.060;38.948;2023-05-07T01:48:47;16.11;64.14
64833;HTU21D;51290;45.060;38.948;2023-05-07T01:51:13;16.08;64.02
64833;HTU21D;51290;45.060;38.948;2023-05-07T01:53:39;16.04;63.76
64833;HTU21D;51290;45.060;38.948;2023-05-07T01:56:07;16.02;63.67
64833;HTU21D;51290;45.060;38.948;2023-05-07T01:58:35;15.97;63.74
64833;HTU21D;51290;45.060;38.948;2023-05-07T02:01:01;15.95;63.65
64833;HTU21D;51290;45.060;38.948;2023-05-07T02:03:27;15.90;63.91
64833;HTU21D;51290;45.060;38.948;2023-05-07T02:06:02;15.88;64.21
64833;HTU21D;51290;45.060;38.948;2023-05-07T02:08:34;15.84;63.98
64833;HTU21D;51290;45.060;38.948;2023-05-07T02:11:01;15.78;64.14
64833;HTU21D;51290;45.060;38.948;2023-05-07T02:13:32;15.76;64.23
64833;HTU21D;51290;45.060;38.948;2023-05-07T02:16:00;15.73;63.95
64833;HTU21D;51290;45.060;38.948;2023-05-07T02:18:27;15.70;64.86
64833;HTU21D;51290;45.060;38.948;2023-05-07T02:20:53;15.65;64.39
64833;HTU21D;51290;45.060;38.948;2023-05-07T02:23:19;15.62;64.63
64833;HTU21D;51290;45.060;38.948;2023-05-07T02:25:45;15.60;64.66
64833;HTU21D;51290;45.060;38.948;2023-05-07T02:28:12;15.56;64.70
64833;HTU21D;51290;45.060;38.948;2023-05-07T02:30:44;15.55;64.31
64833;HTU21D;51290;45.060;38.948;2023-05-07T02:33:10;15.52;64.46
64833;HTU21D;51290;45.060;38.948;2023-05-07T02:35:38;15.52;64.64
64833;HTU21D;51290;45.060;38.948;2023-05-07T02:38:04;15.48;65.38
64833;HTU21D;51290;45.060;38.948;2023-05-07T02:40:32;15.45;64.79
64833;HTU21D;51290;45.060;38.948;2023-05-07T02:42:59;15.42;64.72
64833;HTU21D;51290;45.060;38.948;2023-05-07T02:45:25;15.40;64.54
64833;HTU21D;51290;45.060;38.948;2023-05-07T02:47:53;15.39;65.00
64833;HTU21D;51290;45.060;38.948;2023-05-07T02:50:20;15.36;64.70
64833;HTU21D;51290;45.060;38.948;2023-05-07T02:52:46;15.33;65.46
64833;HTU21D;51290;45.060;38.948;2023-05-07T02:55:13;15.30;65.26
64833;HTU21D;51290;45.060;38.948;2023-05-07T02:57:39;15.29;64.98
64833;HTU21D;51290;45.060;38.948;2023-05-07T03:00:19;15.26;65.66
64833;HTU21D;51290;45.060;38.948;2023-05-07T03:02:56;15.26;64.86
64833;HTU21D;51290;45.060;38.948;2023-05-07T03:05:22;15.24;64.69
64833;HTU21D;51290;45.060;38.948;2023-05-07T03:07:47;15.23;64.54
64833;HTU21D;51290;45.060;38.948;2023-05-07T03:10:14;15.23;64.88
64833;HTU21D;51290;45.060;38.948;2023-05-07T03:12:41;15.23;64.52
64833;HTU21D;51290;45.060;38.948;2023-05-07T03:15:09;15.21;64.56
64833;HTU21D;51290;45.060;38.948;2023-05-07T03:17:36;15.21;64.48
64833;HTU21D;51290;45.060;38.948;2023-05-07T03:20:02;15.19;65.59
64833;HTU21D;51290;45.060;38.948;2023-05-07T03:22:28;15.15;65.29
64833;HTU21D;51290;45.060;38.948;2023-05-07T03:24:54;15.13;64.78
64833;HTU21D;51290;45.060;38.948;2023-05-07T03:27:21;15.13;65.35
64833;HTU21D;51290;45.060;38.948;2023-05-07T03:29:48;15.12;65.13
64833;HTU21D;51290;45.060;38.948;2023-05-07T03:32:15;15.11;65.37
64833;HTU21D;51290;45.060;38.948;2023-05-07T03:34:41;15.10;64.98
64833;HTU21D;51290;45.060;38.948;2023-05-07T03:37:10;15.11;64.78
64833;HTU21D;51290;45.060;38.948;2023-05-07T03:39:36;15.10;64.87
64833;HTU21D;51290;45.060;38.948;2023-05-07T03:42:03;15.10;65.41
64833;HTU21D;51290;45.060;38.948;2023-05-07T03:44:30;15.10;65.43
64833;HTU21D;51290;45.060;38.948;2023-05-07T03:46:58;15.10;65.01
64833;HTU21D;51290;45.060;38.948;2023-05-07T03:49:24;15.10;64.73
64833;HTU21D;51290;45.060;38.948;2023-05-07T03:51:50;15.11;64.85
64833;HTU21D;51290;45.060;38.948;2023-05-07T03:54:17;15.12;64.85
64833;HTU21D;51290;45.060;38.948;2023-05-07T03:56:45;15.11;65.08
64833;HTU21D;51290;45.060;38.948;2023-05-07T03:59:12;15.07;64.81
64833;HTU21D;51290;45.060;38.948;2023-05-07T04:01:40;15.06;64.91
64833;HTU21D;51290;45.060;38.948;2023-05-07T04:04:06;15.04;64.73
64833;HTU21D;51290;45.060;38.948;2023-05-07T04:06:35;15.06;65.52
64833;HTU21D;51290;45.060;38.948;2023-05-07T04:09:00;15.06;64.78
64833;HTU21D;51290;45.060;38.948;2023-05-07T04:11:27;15.08;64.73
64833;HTU21D;51290;45.060;38.948;2023-05-07T04:13:54;15.07;65.22
64833;HTU21D;51290;45.060;38.948;2023-05-07T04:16:22;15.06;64.86
64833;HTU21D;51290;45.060;38.948;2023-05-07T04:18:48;15.09;64.68
64833;HTU21D;51290;45.060;38.948;2023-05-07T04:21:18;15.14;64.73
64833;HTU21D;51290;45.060;38.948;2023-05-07T04:23:46;15.16;64.84
64833;HTU21D;51290;45.060;38.948;2023-05-07T04:26:14;15.16;64.72
64833;HTU21D;51290;45.060;38.948;2023-05-07T04:28:43;15.18;64.51
64833;HTU21D;51290;45.060;38.948;2023-05-07T04:31:09;15.21;64.44
64833;HTU21D;51290;45.060;38.948;2023-05-07T04:33:36;15.25;64.27
64833;HTU21D;51290;45.060;38.948;2023-05-07T04:36:04;15.27;64.36
64833;HTU21D;51290;45.060;38.948;2023-05-07T04:38:34;15.31;64.08
64833;HTU21D;51290;45.060;38.948;2023-05-07T04:41:06;15.31;63.92
64833;HTU21D;51290;45.060;38.948;2023-05-07T04:43:36;15.32;63.95
64833;HTU21D;51290;45.060;38.948;2023-05-07T04:46:02;15.27;63.81
64833;HTU21D;51290;45.060;38.948;2023-05-07T04:48:29;15.21;63.72
64833;HTU21D;51290;45.060;38.948;2023-05-07T04:50:56;15.18;63.76
64833;HTU21D;51290;45.060;38.948;2023-05-07T04:53:23;15.14;63.73
64833;HTU21D;51290;45.060;38.948;2023-05-07T04:55:55;15.12;63.97
64833;HTU21D;51290;45.060;38.948;2023-05-07T04:58:23;15.10;63.82
64833;HTU21D;51290;45.060;38.948;2023-05-07T05:00:49;15.08;63.88
64833;HTU21D;51290;45.060;38.948;2023-05-07T05:03:15;15.06;63.79
64833;HTU21D;51290;45.060;38.948;2023-05-07T05:05:41;15.06;63.73
64833;HTU21D;51290;45.060;38.948;2023-05-07T05:08:07;15.04;63.76
64833;HTU21D;51290;45.060;38.948;2023-05-07T05:10:37;15.03;63.82
64833;HTU21D;51290;45.060;38.948;2023-05-07T05:13:04;15.04;63.82
64833;HTU21D;51290;45.060;38.948;2023-05-07T05:15:31;15.07;63.73
64833;HTU21D;51290;45.060;38.948;2023-05-07T05:17:57;15.10;63.67
64833;HTU21D;51290;45.060;38.948;2023-05-07T05:20:23;15.13;63.63
64833;HTU21D;51290;45.060;38.948;2023-05-07T05:22:49;15.15;63.50
64833;HTU21D;51290;45.060;38.948;2023-05-07T05:25:15;15.13;63.61
64833;HTU21D;51290;45.060;38.948;2023-05-07T05:27:42;15.10;63.58
64833;HTU21D;51290;45.060;38.948;2023-05-07T05:30:08;15.08;63.77
64833;HTU21D;51290;45.060;38.948;2023-05-07T05:32:35;15.04;63.63
64833;HTU21D;51290;45.060;38.948;2023-05-07T05:35:01;15.02;63.64
64833;HTU21D;51290;45.060;38.948;2023-05-07T05:37:28;15.02;63.63
64833;HTU21D;51290;45.060;38.948;2023-05-07T05:39:56;15.07;63.59
64833;HTU21D;51290;45.060;38.948;2023-05-07T05:42:24;15.09;63.60
64833;HTU21D;51290;45.060;38.948;2023-05-07T05:44:50;15.11;63.66
64833;HTU21D;51290;45.060;38.948;2023-05-07T05:47:16;15.12;64.07
64833;HTU21D;51290;45.060;38.948;2023-05-07T05:49:42;15.12;63.83
64833;HTU21D;51290;45.060;38.948;2023-05-07T05:52:12;15.15;64.01
64833;HTU21D;51290;45.060;38.948;2023-05-07T05:54:39;15.18;63.90
64833;HTU21D;51290;45.060;38.948;2023-05-07T05:57:05;15.24;63.79
64833;HTU21D;51290;45.060;38.948;2023-05-07T05:59:32;15.34;63.73
64833;HTU21D;51290;45.060;38.948;2023-05-07T06:01:58;15.44;63.63
64833;HTU21D;51290;45.060;38.948;2023-05-07T06:04:24;15.55;63.50
64833;HTU21D;51290;45.060;38.948;2023-05-07T06:23:38;16.21;62.63
64833;HTU21D;51290;45.060;38.948;2023-05-07T06:26:07;16.36;62.54
64833;HTU21D;51290;45.060;38.948;2023-05-07T06:28:38;16.49;62.46
64833;HTU21D;51290;45.060;38.948;2023-05-07T06:31:16;16.55;62.50
64833;HTU21D;51290;45.060;38.948;2023-05-07T06:33:46;16.57;62.43
64833;HTU21D;51290;45.060;38.948;2023-05-07T06:36:14;16.66;62.36
64833;HTU21D;51290;45.060;38.948;2023-05-07T06:38:40;16.79;62.29
64833;HTU21D;51290;45.060;38.948;2023-05-07T06:41:06;16.91;62.12
64833;HTU21D;51290;45.060;38.948;2023-05-07T06:43:33;16.96;61.90
64833;HTU21D;51290;45.060;38.948;2023-05-07T06:46:17;16.93;61.93
64833;HTU21D;51290;45.060;38.948;2023-05-07T06:48:43;16.91;62.02
64833;HTU21D;51290;45.060;38.948;2023-05-07T06:51:09;16.90;62.12
64833;HTU21D;51290;45.060;38.948;2023-05-07T06:53:35;16.86;62.09
64833;HTU21D;51290;45.060;38.948;2023-05-07T06:56:02;16.82;62.09
64833;HTU21D;51290;45.060;38.948;2023-05-07T06:58:29;16.84;62.37
64833;HTU21D;51290;45.060;38.948;2023-05-07T07:00:55;16.77;62.39
64833;HTU21D;51290;45.060;38.948;2023-05-07T07:03:22;16.71;62.51
64833;HTU21D;51290;45.060;38.948;2023-05-07T07:05:51;16.67;62.79
64833;HTU21D;51290;45.060;38.948;2023-05-07T07:08:18;16.65;62.71
64833;HTU21D;51290;45.060;38.948;2023-05-07T07:10:47;16.66;62.70
64833;HTU21D;51290;45.060;38.948;2023-05-07T07:13:13;16.71;62.62
64833;HTU21D;51290;45.060;38.948;2023-05-07T07:15:39;16.73;62.54
64833;HTU21D;51290;45.060;38.948;2023-05-07T07:18:06;16.77;62.60
64833;HTU21D;51290;45.060;38.948;2023-05-07T07:20:32;16.75;62.54
64833;HTU21D;51290;45.060;38.948;2023-05-07T07:22:58;16.72;62.82
64833;HTU21D;51290;45.060;38.948;2023-05-07T07:25:25;16.62;63.02
64833;HTU21D;51290;45.060;38.948;2023-05-07T07:27:52;16.55;62.99
64833;HTU21D;51290;45.060;38.948;2023-05-07T07:30:19;16.50;63.51
64833;HTU21D;51290;45.060;38.948;2023-05-07T07:32:47;16.49;63.12
64833;HTU21D;51290;45.060;38.948;2023-05-07T07:35:14;16.51;63.24
64833;HTU21D;51290;45.060;38.948;2023-05-07T07:37:41;16.52;63.05
64833;HTU21D;51290;45.060;38.948;2023-05-07T07:40:07;16.58;63.08
64833;HTU21D;51290;45.060;38.948;2023-05-07T07:42:34;16.64;63.04
64833;HTU21D;51290;45.060;38.948;2023-05-07T07:45:00;16.71;63.10
64833;HTU21D;51290;45.060;38.948;2023-05-07T07:47:30;16.77;63.11
64833;HTU21D;51290;45.060;38.948;2023-05-07T07:49:56;16.80;63.08
64833;HTU21D;51290;45.060;38.948;2023-05-07T07:52:22;16.86;62.96
64833;HTU21D;51290;45.060;38.948;2023-05-07T07:54:48;16.91;63.02
64833;HTU21D;51290;45.060;38.948;2023-05-07T07:57:14;16.99;62.87
64833;HTU21D;51290;45.060;38.948;2023-05-07T07:59:40;17.10;62.76
64833;HTU21D;51290;45.060;38.948;2023-05-07T08:02:09;17.17;62.59
64833;HTU21D;51290;45.060;38.948;2023-05-07T08:04:36;17.29;62.58
64833;HTU21D;51290;45.060;38.948;2023-05-07T08:07:04;17.44;62.41
64833;HTU21D;51290;45.060;38.948;2023-05-07T08:09:34;17.49;62.15
64833;HTU21D;51290;45.060;38.948;2023-05-07T08:12:02;17.51;62.06
64833;HTU21D;51290;45.060;38.948;2023-05-07T08:14:32;17.56;62.06
64833;HTU21D;51290;45.060;38.948;2023-05-07T08:16:58;17.65;62.05
64833;HTU21D;51290;45.060;38.948;2023-05-07T08:19:24;17.70;61.92
64833;HTU21D;51290;45.060;38.948;2023-05-07T08:21:50;17.76;61.84
64833;HTU21D;51290;45.060;38.948;2023-05-07T08:24:17;17.85;61.79
64833;HTU21D;51290;45.060;38.948;2023-05-07T08:26:45;17.97;61.66
64833;HTU21D;51290;45.060;38.948;2023-05-07T08:29:11;18.10;61.58
64833;HTU21D;51290;45.060;38.948;2023-05-07T08:31:37;18.24;61.37
64833;HTU21D;51290;45.060;38.948;2023-05-07T08:34:07;18.41;61.18
64833;HTU21D;51290;45.060;38.948;2023-05-07T08:36:36;18.48;60.86
64833;HTU21D;51290;45.060;38.948;2023-05-07T08:39:02;18.49;60.88
64833;HTU21D;51290;45.060;38.948;2023-05-07T08:41:29;18.50;60.82
64833;HTU21D;51290;45.060;38.948;2023-05-07T08:43:57;18.52;60.73
64833;HTU21D;51290;45.060;38.948;2023-05-07T08:46:25;18.54;60.65
64833;HTU21D;51290;45.060;38.948;2023-05-07T08:48:55;18.56;60.69
64833;HTU21D;51290;45.060;38.948;2023-05-07T08:51:21;18.66;60.64
64833;HTU21D;51290;45.060;38.948;2023-05-07T08:53:48;18.68;60.41
64833;HTU21D;51290;45.060;38.948;2023-05-07T08:56:21;18.70;60.34
64833;HTU21D;51290;45.060;38.948;2023-05-07T08:58:48;18.72;60.41
64833;HTU21D;51290;45.060;38.948;2023-05-07T09:01:16;18.76;60.28
64833;HTU21D;51290;45.060;38.948;2023-05-07T09:03:46;18.74;60.25
64833;HTU21D;51290;45.060;38.948;2023-05-07T09:06:14;18.76;60.30
64833;HTU21D;51290;45.060;38.948;2023-05-07T09:08:49;18.80;60.25
64833;HTU21D;51290;45.060;38.948;2023-05-07T09:11:20;18.87;60.32
64833;HTU21D;51290;45.060;38.948;2023-05-07T09:13:56;19.03;60.22
64833;HTU21D;51290;45.060;38.948;2023-05-07T09:16:25;19.13;59.90
64833;HTU21D;51290;45.060;38.948;2023-05-07T09:18:53;19.21;59.80
64833;HTU21D;51290;45.060;38.948;2023-05-07T09:21:21;19.24;59.61
64833;HTU21D;51290;45.060;38.948;2023-05-07T09:23:51;19.22;59.64
64833;HTU21D;51290;45.060;38.948;2023-05-07T09:26:21;19.22;59.58
64833;HTU21D;51290;45.060;38.948;2023-05-07T09:28:48;19.10;59.35
64833;HTU21D;51290;45.060;38.948;2023-05-07T09:31:15;18.93;59.48
64833;HTU21D;51290;45.060;38.948;2023-05-07T09:33:41;18.78;59.71
64833;HTU21D;51290;45.060;38.948;2023-05-07T09:36:10;18.66;59.90
64833;HTU21D;51290;45.060;38.948;2023-05-07T09:38:38;18.57;60.11
64833;HTU21D;51290;45.060;38.948;2023-05-07T09:41:08;18.56;60.18
64833;HTU21D;51290;45.060;38.948;2023-05-07T09:43:41;18.57;60.22
64833;HTU21D;51290;45.060;38.948;2023-05-07T09:46:13;18.59;60.15
64833;HTU21D;51290;45.060;38.948;2023-05-07T09:48:44;18.61;60.15
64833;HTU21D;51290;45.060;38.948;2023-05-07T09:51:25;18.66;60.13
64833;HTU21D;51290;45.060;38.948;2023-05-07T09:53:56;18.74;60.03
64833;HTU21D;51290;45.060;38.948;2023-05-07T09:56:24;18.84;59.94
64833;HTU21D;51290;45.060;38.948;2023-05-07T09:58:52;18.92;59.90
64833;HTU21D;51290;45.060;38.948;2023-05-07T10:01:20;18.99;59.86
64833;HTU21D;51290;45.060;38.948;2023-05-07T10:03:48;19.10;59.81
64833;HTU21D;51290;45.060;38.948;2023-05-07T10:06:16;19.23;59.63
64833;HTU21D;51290;45.060;38.948;2023-05-07T10:08:44;19.27;59.27
64833;HTU21D;51290;45.060;38.948;2023-05-07T10:11:10;19.27;59.28
64833;HTU21D;51290;45.060;38.948;2023-05-07T10:13:37;19.32;59.37
64833;HTU21D;51290;45.060;38.948;2023-05-07T10:16:05;19.39;59.22
64833;HTU21D;51290;45.060;38.948;2023-05-07T10:18:38;19.38;59.10
64833;HTU21D;51290;45.060;38.948;2023-05-07T10:21:16;19.38;59.17
64833;HTU21D;51290;45.060;38.948;2023-05-07T10:23:50;19.41;59.17
64833;HTU21D;51290;45.060;38.948;2023-05-07T10:26:20;19.38;59.06
64833;HTU21D;51290;45.060;38.948;2023-05-07T10:28:53;19.31;59.12
64833;HTU21D;51290;45.060;38.948;2023-05-07T10:34:13;19.18;59.32
64833;HTU21D;51290;45.060;38.948;2023-05-07T10:36:44;19.09;59.37
64833;HTU21D;51290;45.060;38.948;2023-05-07T10:39:11;18.97;59.48
64833;HTU21D;51290;45.060;38.948;2023-05-07T10:41:39;18.84;59.61
64833;HTU21D;51290;45.060;38.948;2023-05-07T10:44:05;18.71;59.86
64833;HTU21D;51290;45.060;38.948;2023-05-07T10:46:33;18.66;59.98
64833;HTU21D;51290;45.060;38.948;2023-05-07T10:49:17;18.63;60.08
64833;HTU21D;51290;45.060;38.948;2023-05-07T10:52:17;18.56;60.43
64833;HTU21D;51290;45.060;38.948;2023-05-07T10:57:43;18.37;60.49
64833;HTU21D;51290;45.060;38.948;2023-05-07T11:05:32;18.28;60.69
64833;HTU21D;51290;45.060;38.948;2023-05-07T11:08:16;18.35;60.67
64833;HTU21D;51290;45.060;38.948;2023-05-07T11:10:54;18.40;60.68
64833;HTU21D;51290;45.060;38.948;2023-05-07T11:13:44;18.43;60.53
